METAR LOCAUX

2020/02/21 12:00 LFST 211200Z AUTO 25008KT 190V280 9999 SCT044 10/M01 Q1031 NOSIG
2020/02/21 12:20 EDSB 211220Z 24007KT 210V290 9999 SCT043 09/00 Q1031
2020/02/21 12:00 LFGA 211200Z AUTO VRB04KT CAVOK 10/M02 Q1031
www.noaa.gov

Ne pas utiliser pour préparer ou effectuer un vol: Utilisez la documentation officielle disponible sur aviation.meteo.fr (Aéroweb)


"Le soleil du matin ne dure pas forcément toute la journée."

Animation satellite IR

Meteociel.fr

"Derrière chaque nuage se cache le ciel bleu."

Radar pluie

Infoclimat.fr

"Si tu veux l’arc-en-ciel, tu dois supporter la pluie."
Dolly Parton

Nébulosité (octas)

Meteociel.fr

"Le soleil est souvent obscurci par les nuages et la raison par les passions."
Démophile

Impacts de foudre

www.meteo60.fr

"Celui que frappe la foudre n'entend pas le tonnerre."

Vigilance météo

vigilance-meteo.fr

"Tout nuage n'enfante pas une tempête."
William Shakespeare

TAF locaux

2020/02/21 12:42 TAF LFST 211100Z 2112/2212 21007KT CAVOK
2020/02/21 12:30 TAF EDSB 211100Z 2112/2212 21010KT 9999 SCT040 BECMG 2115/2117 21005KT BECMG 2204/2206 21010KT BECMG 2210/2212 22015G25KT
www.noaa.gov

Ne pas utiliser pour préparer ou effectuer un vol: Utilisez la documentation officielle disponible sur aviation.meteo.fr (Aéroweb)


"Les jours où le ciel est gris, le soleil n'a pas disparu à tout jamais."
Arnaud Desjardins

Prévisions 7 jours


Meteoblue.com

"Quand les crapauds chantent, le beau temps s'avance !"